Time;durP1;ratioP1;P1;durP2;ratioP2;P2;SDS_P1;SDS_P2;PMS_P1;PMS_P2;Temp;Humidity;BMP_temperature;BMP_pressure;BME280_temperature;BME280_humidity;BME280_pressure;Samples;Min_cycle;Max_cycle;Signal;HPM_P1;HPM_P2
2021/10/06 00:00:26;;;;;;;1999.90;999.90;;;;;;;10.51;86.65;96498.78;5071366;28;20228;-71
2021/10/06 00:02:53;;;;;;;1999.90;999.90;;;;;;;10.55;85.92;96497.22;5070969;28;20197;-71
2021/10/06 00:05:20;;;;;;;1999.90;999.90;;;;;;;10.59;86.04;96493.03;5071692;28;20584;-71
2021/10/06 00:07:47;;;;;;;1999.90;999.90;;;;;;;10.55;86.10;96490.19;5071236;28;20204;-72
2021/10/06 00:10:15;;;;;;;1999.90;999.90;;;;;;;10.52;86.65;96489.94;5071298;28;20279;-71
2021/10/06 00:12:43;;;;;;;1999.90;999.90;;;;;;;10.47;87.59;96487.34;5071178;28;20744;-71
2021/10/06 00:15:12;;;;;;;1999.90;999.90;;;;;;;10.56;86.53;96488.38;5071465;28;20193;-71
2021/10/06 00:17:40;;;;;;;1999.90;999.90;;;;;;;10.60;87.01;96487.56;5071137;28;20695;-71
2021/10/06 00:20:09;;;;;;;1999.90;999.90;;;;;;;10.62;86.44;96475.06;5071192;28;20197;-71
2021/10/06 00:22:36;;;;;;;1999.90;999.90;;;;;;;10.68;86.46;96466.19;5071352;28;20589;-71
2021/10/06 00:25:03;;;;;;;1999.90;999.90;;;;;;;10.68;86.65;96474.00;5071503;28;20200;-72
2021/10/06 00:27:30;;;;;;;1999.90;999.90;;;;;;;10.76;86.00;96465.63;5071664;28;20212;-71
2021/10/06 00:29:59;;;;;;;1999.90;999.90;;;;;;;10.71;85.87;96468.25;5071075;28;20205;-72
2021/10/06 00:32:26;;;;;;;1999.90;999.90;;;;;;;10.61;86.53;96463.09;5071315;28;20196;-72
2021/10/06 00:34:53;;;;;;;1999.90;999.90;;;;;;;10.81;85.31;96467.41;5071018;28;20200;-71
2021/10/06 00:37:20;;;;;;;1999.90;999.90;;;;;;;10.82;85.39;96466.34;5071175;28;20203;-72
2021/10/06 00:39:47;;;;;;;1999.90;999.90;;;;;;;10.83;85.43;96467.91;5070653;28;20242;-72
2021/10/06 00:42:14;;;;;;;1999.90;999.90;;;;;;;10.81;85.61;96470.00;5070458;28;20707;-71
2021/10/06 00:44:41;;;;;;;1999.90;999.90;;;;;;;10.86;85.28;96474.41;5070864;28;20257;-72
2021/10/06 00:47:14;;;;;;;1999.90;999.90;;;;;;;10.76;85.36;96470.03;5070935;28;20258;-71
2021/10/06 00:49:41;;;;;;;1999.90;999.90;;;;;;;10.90;84.84;96460.59;5070469;28;20184;-72
2021/10/06 00:52:10;;;;;;;1999.90;999.90;;;;;;;10.84;85.21;96458.28;5070629;28;20294;-72
2021/10/06 00:54:37;;;;;;;1999.90;999.90;;;;;;;10.80;85.16;96450.28;5070498;28;20236;-72
2021/10/06 00:57:05;;;;;;;1999.90;999.90;;;;;;;10.79;84.99;96449.50;5070509;28;20201;-71
2021/10/06 00:59:32;;;;;;;1999.90;999.90;;;;;;;10.87;84.75;96448.13;5070044;28;20196;-72
2021/10/06 01:02:00;;;;;;;1999.90;999.90;;;;;;;10.78;85.51;96449.75;5070115;28;20223;-71
2021/10/06 01:04:28;;;;;;;1999.90;999.90;;;;;;;10.86;85.76;96438.75;5070201;28;20200;-72
2021/10/06 01:06:55;;;;;;;1999.90;999.90;;;;;;;10.87;85.51;96435.13;5070474;28;20227;-72
2021/10/06 01:09:28;;;;;;;1999.90;999.90;;;;;;;10.81;86.08;96436.19;5070371;28;20192;-72
2021/10/06 01:11:56;;;;;;;1999.90;999.90;;;;;;;10.86;86.29;96435.41;5070001;28;20656;-72
2021/10/06 01:14:25;;;;;;;1999.90;999.90;;;;;;;10.81;86.64;96425.03;5069975;28;20201;-71
2021/10/06 01:16:52;;;;;;;1999.90;999.90;;;;;;;10.87;86.21;96429.13;5069845;28;20691;-71
2021/10/06 01:19:22;;;;;;;1999.90;999.90;;;;;;;10.80;86.43;96426.88;5070390;28;20204;-71
2021/10/06 01:21:51;;;;;;;1999.90;999.90;;;;;;;10.76;86.98;96418.03;5069970;28;20224;-70
2021/10/06 01:24:18;;;;;;;1999.90;999.90;;;;;;;10.78;86.92;96439.34;5069871;28;20204;-72
2021/10/06 01:26:45;;;;;;;1999.90;999.90;;;;;;;10.78;86.94;96434.16;5070254;28;20253;-72
2021/10/06 01:29:14;;;;;;;1999.90;999.90;;;;;;;10.79;87.53;96435.72;5070035;28;20204;-72
2021/10/06 01:31:43;;;;;;;1999.90;999.90;;;;;;;10.79;87.05;96427.91;5069626;28;20291;-71
2021/10/06 01:34:10;;;;;;;1999.90;999.90;;;;;;;10.77;87.15;96432.59;5069930;28;20550;-71
2021/10/06 01:36:38;;;;;;;1999.90;999.90;;;;;;;10.77;87.56;96432.59;5069615;28;20207;-72
2021/10/06 01:39:09;;;;;;;1999.90;999.90;;;;;;;10.79;87.39;96428.69;5069662;28;20196;-71
2021/10/06 01:41:37;;;;;;;1999.90;999.90;;;;;;;10.83;87.07;96421.13;5069634;28;20708;-71
2021/10/06 01:44:05;;;;;;;1999.90;999.90;;;;;;;10.80;87.31;96421.66;5069749;28;20207;-71
2021/10/06 01:46:32;;;;;;;1999.90;999.90;;;;;;;10.77;87.33;96422.19;5069639;28;20204;-71
2021/10/06 01:48:59;;;;;;;1999.90;999.90;;;;;;;10.83;87.23;96430.75;5069257;28;20228;-72
2021/10/06 01:51:26;;;;;;;1999.90;999.90;;;;;;;10.81;87.83;96418.00;5069255;28;20203;-71
2021/10/06 01:53:53;;;;;;;1999.90;999.90;;;;;;;10.84;87.54;96414.09;5068760;28;20581;-71
2021/10/06 01:56:22;;;;;;;1999.90;999.90;;;;;;;10.87;87.56;96429.13;5069263;28;20200;-72
2021/10/06 01:58:49;;;;;;;1999.90;999.90;;;;;;;10.82;87.07;96423.97;5069473;28;20201;-72
2021/10/06 02:01:17;;;;;;;1999.90;999.90;;;;;;;10.84;87.54;96430.47;5063239;28;20227;-72
2021/10/06 02:03:44;;;;;;;1999.90;999.90;;;;;;;10.78;87.54;96426.34;5066103;28;20208;-72
2021/10/06 02:06:11;;;;;;;1999.90;999.90;;;;;;;10.87;87.48;96423.94;5067730;28;20203;-71
2021/10/06 02:08:38;;;;;;;1999.90;999.90;;;;;;;10.82;87.31;96427.34;5068917;28;20196;-71
2021/10/06 02:11:05;;;;;;;1999.90;999.90;;;;;;;10.83;87.47;96428.13;5067595;28;20675;-71
2021/10/06 02:13:34;;;;;;;1999.90;999.90;;;;;;;10.84;87.62;96425.28;5069046;28;20196;-71
2021/10/06 02:16:01;;;;;;;1999.90;999.90;;;;;;;10.82;87.46;96422.16;5069291;28;20196;-72
2021/10/06 02:18:28;;;;;;;1999.90;999.90;;;;;;;10.84;87.65;96427.88;5069340;28;20196;-71
2021/10/06 02:20:55;;;;;;;1999.90;999.90;;;;;;;10.90;87.47;96424.19;5069198;28;20355;-72
2021/10/06 02:23:22;;;;;;;1999.90;999.90;;;;;;;10.86;87.73;96430.22;5068981;28;20200;-72
2021/10/06 02:25:49;;;;;;;1999.90;999.90;;;;;;;10.85;87.38;96424.22;5068787;28;20204;-72
2021/10/06 02:28:16;;;;;;;1999.90;999.90;;;;;;;10.92;87.65;96423.91;5069229;28;20660;-71
2021/10/06 02:30:45;;;;;;;1999.90;999.90;;;;;;;10.93;87.86;96428.84;5068758;28;20247;-72
2021/10/06 02:33:12;;;;;;;1999.90;999.90;;;;;;;10.90;87.82;96429.41;5068956;28;20261;-71
2021/10/06 02:35:39;;;;;;;1999.90;999.90;;;;;;;10.77;89.02;96420.38;5069114;28;20688;-71
2021/10/06 02:38:06;;;;;;;1999.90;999.90;;;;;;;10.79;88.66;96423.50;5068833;28;20246;-72
2021/10/06 02:40:33;;;;;;;1999.90;999.90;;;;;;;10.95;88.00;96431.19;5069038;28;20201;-72
2021/10/06 02:43:00;;;;;;;1999.90;999.90;;;;;;;10.76;89.19;96426.63;5068671;28;20314;-71
2021/10/06 02:45:27;;;;;;;1999.90;999.90;;;;;;;10.84;88.15;96421.91;5068739;28;20733;-71
2021/10/06 02:47:56;;;;;;;1999.90;999.90;;;;;;;10.94;87.70;96422.59;5069014;28;20253;-71
2021/10/06 02:50:25;;;;;;;1999.90;999.90;;;;;;;10.94;87.79;96427.03;5068735;28;20274;-71
2021/10/06 02:52:53;;;;;;;1999.90;999.90;;;;;;;10.96;87.85;96419.72;5068971;28;20338;-71
2021/10/06 02:55:20;;;;;;;1999.90;999.90;;;;;;;10.90;87.28;96416.41;5068796;28;20212;-71
2021/10/06 02:57:47;;;;;;;1999.90;999.90;;;;;;;10.92;87.72;96416.88;5068823;28;20250;-71
2021/10/06 03:00:15;;;;;;;1999.90;999.90;;;;;;;10.78;88.86;96421.16;5068748;28;20239;-71
2021/10/06 03:02:42;;;;;;;1999.90;999.90;;;;;;;10.82;88.61;96421.38;5068426;28;20228;-71
2021/10/06 03:05:12;;;;;;;1999.90;999.90;;;;;;;10.87;88.45;96416.13;5068693;28;20586;-71
2021/10/06 03:07:39;;;;;;;1999.90;999.90;;;;;;;10.89;88.00;96412.22;5068591;28;20455;-71
2021/10/06 03:10:08;;;;;;;1999.90;999.90;;;;;;;10.83;88.35;96413.31;5068751;28;20196;-71
2021/10/06 03:12:35;;;;;;;1999.90;999.90;;;;;;;10.85;87.86;96411.22;5068274;28;20664;-71
2021/10/06 03:15:04;;;;;;;1999.90;999.90;;;;;;;10.87;87.79;96416.91;5068559;28;20573;-71
2021/10/06 03:17:31;;;;;;;1999.90;999.90;;;;;;;10.86;88.17;96412.00;5068459;28;20193;-71
2021/10/06 03:19:58;;;;;;;1999.90;999.90;;;;;;;10.87;88.15;96405.75;5068272;28;20241;-71
2021/10/06 03:22:27;;;;;;;1999.90;999.90;;;;;;;10.86;88.14;96404.22;5069800;28;20274;-71
2021/10/06 03:24:54;;;;;;;1999.90;999.90;;;;;;;10.93;88.35;96405.44;5072063;28;20207;-72
2021/10/06 03:27:21;;;;;;;1999.90;999.90;;;;;;;10.92;87.71;96410.91;5072306;28;20206;-71
2021/10/06 03:29:48;;;;;;;1999.90;999.90;;;;;;;10.85;88.08;96405.25;5072009;28;20200;-71
2021/10/06 03:32:15;;;;;;;1999.90;999.90;;;;;;;10.88;87.74;96408.06;5071673;28;20246;-70
2021/10/06 03:34:42;;;;;;;1999.90;999.90;;;;;;;10.93;87.87;96407.25;5072155;28;20253;-70
2021/10/06 03:37:09;;;;;;;1999.90;999.90;;;;;;;10.86;88.07;96415.34;5071894;28;20242;-70
2021/10/06 03:39:38;;;;;;;1999.90;999.90;;;;;;;10.86;88.17;96410.16;5072125;28;20196;-70
2021/10/06 03:42:05;;;;;;;1999.90;999.90;;;;;;;10.85;88.23;96408.63;5071676;28;20228;-70
2021/10/06 03:44:32;;;;;;;1999.90;999.90;;;;;;;10.97;88.05;96408.25;5071601;28;20211;-70
2021/10/06 03:46:59;;;;;;;1999.90;999.90;;;;;;;10.97;86.97;96405.66;5071460;28;20188;-71
2021/10/06 03:49:26;;;;;;;1999.90;999.90;;;;;;;10.93;87.24;96404.66;5071516;28;20623;-72
2021/10/06 03:51:53;;;;;;;1999.90;999.90;;;;;;;10.92;87.10;96416.88;5071575;28;20225;-71
2021/10/06 03:54:20;;;;;;;1999.90;999.90;;;;;;;10.95;87.22;96405.94;5071448;28;20240;-71
2021/10/06 03:56:49;;;;;;;1999.90;999.90;;;;;;;10.96;87.26;96406.72;5071293;28;20201;-73
2021/10/06 03:59:16;;;;;;;1999.90;999.90;;;;;;;10.99;87.12;96404.34;5071481;28;20201;-70
2021/10/06 04:01:43;;;;;;;1999.90;999.90;;;;;;;10.93;87.42;96402.06;5070967;28;20228;-71
2021/10/06 04:04:10;;;;;;;1999.90;999.90;;;;;;;10.96;87.04;96402.28;5070697;28;20200;-70
2021/10/06 04:06:37;;;;;;;1999.90;999.90;;;;;;;10.96;86.17;96402.28;5071220;28;20219;-70
2021/10/06 04:09:04;;;;;;;1999.90;999.90;;;;;;;11.05;86.84;96403.28;5071495;28;20212;-71
2021/10/06 04:11:31;;;;;;;1999.90;999.90;;;;;;;10.93;86.90;96397.63;5071289;28;20203;-72
2021/10/06 04:14:00;;;;;;;1999.90;999.90;;;;;;;10.96;86.91;96394.47;5070973;28;20264;-71
2021/10/06 04:16:27;;;;;;;1999.90;999.90;;;;;;;10.96;87.03;96383.31;5070798;28;20207;-71
2021/10/06 04:18:54;;;;;;;1999.90;999.90;;;;;;;10.86;87.33;96391.97;5070903;28;20201;-70
2021/10/06 04:21:22;;;;;;;1999.90;999.90;;;;;;;10.87;87.52;96393.50;5071126;28;20230;-70
2021/10/06 04:23:49;;;;;;;1999.90;999.90;;;;;;;10.87;87.19;96393.50;5070853;28;20236;-70
2021/10/06 04:26:16;;;;;;;1999.90;999.90;;;;;;;10.91;87.52;96393.78;5070667;28;20607;-71
2021/10/06 04:28:43;;;;;;;1999.90;999.90;;;;;;;11.01;87.09;96393.69;5070632;28;20197;-72
2021/10/06 04:31:11;;;;;;;1999.90;999.90;;;;;;;10.98;87.05;96395.00;5070834;28;20603;-72
2021/10/06 04:33:39;;;;;;;1999.90;999.90;;;;;;;10.97;86.96;96393.44;5069549;28;20193;-72
2021/10/06 04:36:06;;;;;;;1999.90;999.90;;;;;;;10.97;87.41;96383.03;5070198;28;20197;-71
2021/10/06 04:38:33;;;;;;;1999.90;999.90;;;;;;;10.97;87.49;96383.03;5070380;28;20345;-71
2021/10/06 04:41:01;;;;;;;1999.90;999.90;;;;;;;10.96;87.26;96372.94;5070582;28;20234;-72
2021/10/06 04:43:28;;;;;;;1999.90;999.90;;;;;;;11.01;87.01;96378.09;5070313;28;20592;-71
2021/10/06 04:45:55;;;;;;;1999.90;999.90;;;;;;;10.95;87.33;96382.53;5070565;28;20200;-71
2021/10/06 04:48:24;;;;;;;1999.90;999.90;;;;;;;10.96;87.12;96384.06;5070174;28;20211;-72
2021/10/06 04:50:51;;;;;;;1999.90;999.90;;;;;;;11.00;87.58;96379.91;5070224;28;20205;-72
2021/10/06 04:53:18;;;;;;;1999.90;999.90;;;;;;;10.84;87.66;96378.47;5070212;28;20627;-71
2021/10/06 04:55:46;;;;;;;1999.90;999.90;;;;;;;10.88;88.01;96384.66;5069995;28;20253;-72
2021/10/06 04:58:13;;;;;;;1999.90;999.90;;;;;;;10.94;87.45;96388.78;5070039;28;20200;-72
2021/10/06 05:00:40;;;;;;;1999.90;999.90;;;;;;;10.85;87.50;96385.22;5070232;28;20274;-72
2021/10/06 05:03:08;;;;;;;1999.90;999.90;;;;;;;10.91;87.28;96391.16;5069874;28;20239;-71
2021/10/06 05:05:38;;;;;;;1999.90;999.90;;;;;;;10.87;87.41;96392.75;5070380;28;20208;-72
2021/10/06 05:08:06;;;;;;;1999.90;999.90;;;;;;;10.78;87.95;96395.94;5069888;28;20185;-71
2021/10/06 05:10:33;;;;;;;1999.90;999.90;;;;;;;10.76;88.75;96397.22;5070065;28;20596;-71
2021/10/06 05:13:01;;;;;;;1999.90;999.90;;;;;;;10.80;87.67;96387.88;5069736;28;20741;-72
2021/10/06 05:15:28;;;;;;;1999.90;999.90;;;;;;;10.79;87.95;96388.91;5069781;28;20232;-72
2021/10/06 05:17:55;;;;;;;1999.90;999.90;;;;;;;10.87;87.90;96390.91;5069925;28;20430;-72
2021/10/06 05:20:22;;;;;;;1999.90;999.90;;;;;;;10.82;87.61;96388.34;5069794;28;20645;-71
2021/10/06 05:22:52;;;;;;;1999.90;999.90;;;;;;;10.78;88.23;96385.53;5069472;28;20224;-72
2021/10/06 05:25:20;;;;;;;1999.90;999.90;;;;;;;10.88;87.85;96389.88;5069557;28;20283;-71
2021/10/06 05:27:47;;;;;;;1999.90;999.90;;;;;;;10.88;87.44;96379.47;5069513;28;20231;-71
2021/10/06 05:30:15;;;;;;;1999.90;999.90;;;;;;;10.86;87.55;96376.34;5069747;28;20203;-71
2021/10/06 05:32:42;;;;;;;1999.90;999.90;;;;;;;10.93;87.77;96371.63;5069607;28;20196;-71
2021/10/06 05:35:10;;;;;;;1999.90;999.90;;;;;;;10.94;87.82;96378.38;5069740;28;20257;-71
2021/10/06 05:37:37;;;;;;;1999.90;999.90;;;;;;;10.96;87.62;96376.28;5069479;28;20208;-71
2021/10/06 05:40:08;;;;;;;1999.90;999.90;;;;;;;10.96;86.67;96373.66;5069682;28;20204;-71
2021/10/06 05:42:35;;;;;;;1999.90;999.90;;;;;;;10.96;87.44;96373.66;5069222;28;20228;-71
2021/10/06 05:45:02;;;;;;;1999.90;999.90;;;;;;;10.97;87.39;96367.44;5069114;28;20562;-71
2021/10/06 05:47:29;;;;;;;1999.90;999.90;;;;;;;10.97;87.06;96364.03;5069257;28;20234;-70
2021/10/06 05:49:56;;;;;;;1999.90;999.90;;;;;;;11.09;87.10;96365.25;5069274;28;20189;-71
2021/10/06 05:52:23;;;;;;;1999.90;999.90;;;;;;;11.12;86.89;96369.13;5069198;28;20192;-71
2021/10/06 05:54:51;;;;;;;1999.90;999.90;;;;;;;11.38;86.31;96378.22;5069433;28;20228;-72
2021/10/06 05:57:19;;;;;;;1999.90;999.90;;;;;;;11.47;85.89;96373.19;5069139;28;20211;-71
2021/10/06 05:59:47;;;;;;;1999.90;999.90;;;;;;;11.52;84.58;96373.13;5069078;28;20569;-72
2021/10/06 06:02:14;;;;;;;1999.90;999.90;;;;;;;11.59;85.13;96384.78;5069092;28;20235;-72
2021/10/06 06:04:41;;;;;;;1999.90;999.90;;;;;;;11.64;83.86;96386.56;5069179;28;20197;-72
2021/10/06 06:07:09;;;;;;;1999.90;999.90;;;;;;;11.74;83.94;96390.91;5068791;28;20202;-71
2021/10/06 06:09:37;;;;;;;1999.90;999.90;;;;;;;11.63;84.18;96390.19;5068956;28;20196;-71
2021/10/06 06:12:09;;;;;;;1999.90;999.90;;;;;;;11.69;84.38;96383.13;5068913;28;20208;-71
2021/10/06 06:14:39;;;;;;;1999.90;999.90;;;;;;;11.71;84.28;96378.38;5069237;28;20223;-72
2021/10/06 06:17:06;;;;;;;1999.90;999.90;;;;;;;11.74;84.23;96378.66;5068967;28;20192;-72
2021/10/06 06:19:33;;;;;;;1999.90;999.90;;;;;;;11.67;83.14;96375.56;5069092;28;20207;-71
2021/10/06 06:22:00;;;;;;;1999.90;999.90;;;;;;;11.70;83.96;96364.63;5069154;28;20200;-71
2021/10/06 06:24:28;;;;;;;1999.90;999.90;;;;;;;11.91;83.21;96370.38;5069323;28;20196;-71
2021/10/06 06:26:55;;;;;;;1999.90;999.90;;;;;;;11.91;83.02;96376.34;5069258;28;20269;-72
2021/10/06 06:29:23;;;;;;;1999.90;999.90;;;;;;;11.92;82.58;96377.91;5069168;28;20287;-71
2021/10/06 06:31:51;;;;;;;1999.90;999.90;;;;;;;12.15;81.82;96383.38;5068915;28;20257;-71
2021/10/06 06:34:18;;;;;;;1999.90;999.90;;;;;;;12.37;80.49;96373.16;5069104;28;20197;-72
2021/10/06 06:36:45;;;;;;;1999.90;999.90;;;;;;;12.34;80.94;96368.50;5068597;28;20254;-71
2021/10/06 06:39:12;;;;;;;1999.90;999.90;;;;;;;12.45;80.56;96377.75;5068829;28;20208;-71
2021/10/06 06:41:39;;;;;;;1999.90;999.90;;;;;;;12.58;79.50;96379.63;5068852;28;20200;-72
2021/10/06 06:44:06;;;;;;;1999.90;999.90;;;;;;;12.72;79.11;96379.66;5068669;28;20283;-72
2021/10/06 06:46:34;;;;;;;1999.90;999.90;;;;;;;12.95;76.64;96378.78;5068515;28;20204;-71
2021/10/06 06:49:02;;;;;;;1999.90;999.90;;;;;;;12.96;75.76;96375.09;5068402;28;20201;-71
2021/10/06 06:51:29;;;;;;;1999.90;999.90;;;;;;;12.96;75.99;96375.09;5068405;28;20277;-71
2021/10/06 06:53:57;;;;;;;1999.90;999.90;;;;;;;12.90;75.82;96377.03;5068212;28;20289;-71
2021/10/06 06:56:24;;;;;;;1999.90;999.90;;;;;;;12.95;76.18;96374.31;5068503;28;20197;-71
2021/10/06 06:58:51;;;;;;;1999.90;999.90;;;;;;;12.77;76.63;96376.97;5072013;28;20207;-71
2021/10/06 07:01:18;;;;;;;1999.90;999.90;;;;;;;12.74;76.91;96380.94;5072347;28;20207;-71
2021/10/06 07:03:46;;;;;;;1999.90;999.90;;;;;;;12.84;76.25;96380.78;5072553;28;20232;-71
2021/10/06 07:06:14;;;;;;;1999.90;999.90;;;;;;;12.84;76.14;96383.41;5072210;28;20203;-72
2021/10/06 07:08:47;;;;;;;1999.90;999.90;;;;;;;12.87;76.21;96393.25;5072263;28;20193;-71
2021/10/06 07:11:14;;;;;;;1999.90;999.90;;;;;;;13.08;76.01;96387.72;5072298;28;20189;-71
2021/10/06 07:13:41;;;;;;;1999.90;999.90;;;;;;;13.04;74.92;96391.97;5072606;28;20207;-71
2021/10/06 07:16:08;;;;;;;1999.90;999.90;;;;;;;13.46;73.39;96398.81;5072258;28;20251;-71
2021/10/06 07:18:35;;;;;;;1999.90;999.90;;;;;;;13.64;72.82;96400.59;5072455;28;20197;-72
2021/10/06 07:21:02;;;;;;;1999.90;999.90;;;;;;;13.93;73.02;96401.06;5072169;28;20211;-71
2021/10/06 07:23:31;;;;;;;1999.90;999.90;;;;;;;14.08;71.02;96406.00;5072322;28;20227;-71
2021/10/06 07:25:58;;;;;;;1999.90;999.90;;;;;;;14.05;70.39;96411.00;5072001;28;20204;-71
2021/10/06 07:28:25;;;;;;;1999.90;999.90;;;;;;;13.86;71.83;96413.72;5072202;28;20672;-71
2021/10/06 07:30:53;;;;;;;1999.90;999.90;;;;;;;13.85;71.62;96417.41;5071865;28;20210;-72
2021/10/06 07:33:20;;;;;;;1999.90;999.90;;;;;;;13.86;72.17;96418.19;5072261;28;20192;-71
2021/10/06 07:35:47;;;;;;;1999.90;999.90;;;;;;;13.82;71.30;96418.00;5071917;28;20603;-72
2021/10/06 07:38:15;;;;;;;1999.90;999.90;;;;;;;13.71;72.90;96416.63;5072165;28;20197;-71
2021/10/06 07:40:43;;;;;;;1999.90;999.90;;;;;;;14.04;71.91;96433.78;5071741;28;20206;-71
2021/10/06 07:43:10;;;;;;;1999.90;999.90;;;;;;;14.06;69.85;96426.41;5071746;28;20225;-71
2021/10/06 07:45:38;;;;;;;1999.90;999.90;;;;;;;14.06;70.59;96418.56;5072081;28;20200;-71
2021/10/06 07:48:06;;;;;;;1999.90;999.90;;;;;;;13.99;70.52;96423.41;5072084;28;20255;-71
2021/10/06 07:50:33;;;;;;;1999.90;999.90;;;;;;;14.03;70.89;96423.59;5071911;28;20273;-71
2021/10/06 07:53:00;;;;;;;1999.90;999.90;;;;;;;14.18;71.16;96423.31;5071501;28;20196;-72
2021/10/06 07:55:27;;;;;;;1999.90;999.90;;;;;;;14.41;71.51;96416.31;5071460;28;20235;-71
2021/10/06 07:57:56;;;;;;;1999.90;999.90;;;;;;;14.88;69.03;96430.69;5071490;28;20197;-71
2021/10/06 08:00:24;;;;;;;1999.90;999.90;;;;;;;14.94;67.28;96438.13;5070960;28;20196;-71
2021/10/06 08:02:51;;;;;;;1999.90;999.90;;;;;;;14.81;67.75;96438.19;5071285;28;20252;-71
2021/10/06 08:05:18;;;;;;;1999.90;999.90;;;;;;;14.56;68.49;96436.91;5071413;28;20192;-71
2021/10/06 08:07:45;;;;;;;1999.90;999.90;;;;;;;14.48;69.70;96430.53;5071080;28;20628;-71
2021/10/06 08:10:12;;;;;;;1999.90;999.90;;;;;;;14.58;68.95;96434.78;5070022;28;20296;-71
2021/10/06 08:12:39;;;;;;;1999.90;999.90;;;;;;;14.31;69.36;96430.34;5071492;28;20200;-71
2021/10/06 08:15:09;;;;;;;1999.90;999.90;;;;;;;14.29;70.81;96426.50;5071208;28;20204;-71
2021/10/06 08:17:36;;;;;;;1999.90;999.90;;;;;;;14.47;69.17;96433.44;5071178;28;20567;-71
2021/10/06 08:20:04;;;;;;;1999.90;999.90;;;;;;;14.65;69.72;96425.44;5071122;28;20204;-72
2021/10/06 08:22:31;;;;;;;1999.90;999.90;;;;;;;14.56;67.50;96415.97;5071197;28;20219;-72
2021/10/06 08:24:58;;;;;;;1999.90;999.90;;;;;;;14.75;69.89;96432.28;5071108;28;20258;-72
2021/10/06 08:27:25;;;;;;;1999.90;999.90;;;;;;;15.09;67.57;96437.03;5071248;28;20201;-70
2021/10/06 08:29:53;;;;;;;1999.90;999.90;;;;;;;15.15;66.96;96430.56;5070901;28;20586;-71
2021/10/06 08:32:22;;;;;;;1999.90;999.90;;;;;;;15.06;67.18;96424.50;5071143;28;20197;-72
2021/10/06 08:34:49;;;;;;;1999.90;999.90;;;;;;;14.89;68.57;96419.16;5070765;28;20250;-72
2021/10/06 08:37:16;;;;;;;1999.90;999.90;;;;;;;15.07;67.95;96423.44;5070982;28;20255;-71
2021/10/06 08:39:43;;;;;;;1999.90;999.90;;;;;;;15.04;68.68;96424.78;5070603;28;20196;-71
2021/10/06 08:42:10;;;;;;;1999.90;999.90;;;;;;;15.27;67.04;96427.41;5070991;28;20197;-71
2021/10/06 08:44:38;;;;;;;1999.90;999.90;;;;;;;15.35;67.11;96421.44;5071025;28;20224;-71
2021/10/06 08:47:07;;;;;;;1999.90;999.90;;;;;;;15.40;66.79;96418.69;5070581;28;20203;-71
2021/10/06 08:49:36;;;;;;;1999.90;999.90;;;;;;;15.31;66.72;96412.63;5070550;28;20203;-71
2021/10/06 08:52:03;;;;;;;1999.90;999.90;;;;;;;15.24;67.01;96420.91;5070292;28;20632;-71
2021/10/06 08:54:32;;;;;;;1999.90;999.90;;;;;;;15.41;67.51;96415.78;5070162;28;20598;-71
2021/10/06 08:56:59;;;;;;;1999.90;999.90;;;;;;;15.39;64.92;96417.16;5070225;28;20287;-70
2021/10/06 08:59:26;;;;;;;1999.90;999.90;;;;;;;15.28;66.42;96413.25;5069650;28;20197;-71
2021/10/06 09:01:53;;;;;;;1999.90;999.90;;;;;;;15.21;66.29;96424.13;5068369;28;20337;-71
2021/10/06 09:04:32;;;;;;;1999.90;999.90;;;;;;;15.23;67.11;96426.47;5070129;28;20271;-71
2021/10/06 09:07:03;;;;;;;1999.90;999.90;;;;;;;15.20;66.92;96427.03;5070016;28;20204;-71
2021/10/06 09:09:33;;;;;;;1999.90;999.90;;;;;;;15.03;67.33;96425.13;5070240;28;20189;-71
2021/10/06 09:12:02;;;;;;;1999.90;999.90;;;;;;;15.31;67.36;96423.13;5070586;28;20196;-71
2021/10/06 09:14:31;;;;;;;1999.90;999.90;;;;;;;15.38;66.66;96415.63;5070015;28;20200;-72
2021/10/06 09:17:06;;;;;;;1999.90;999.90;;;;;;;15.39;66.03;96411.94;5059599;28;20283;-71
2021/10/06 09:19:39;;;;;;;1999.90;999.90;;;;;;;15.28;67.17;96416.66;5053511;28;20334;-71
2021/10/06 09:22:13;;;;;;;1999.90;999.90;;;;;;;15.49;66.31;96422.91;5054748;28;20250;-71
2021/10/06 09:24:53;;;;;;;1999.90;999.90;;;;;;;15.58;65.50;96427.44;5069815;28;20688;-71
2021/10/06 09:27:21;;;;;;;1999.90;999.90;;;;;;;15.47;66.27;96425.06;5069966;28;20189;-71
2021/10/06 09:29:49;;;;;;;1999.90;999.90;;;;;;;15.57;65.18;96423.28;5070101;28;20204;-71
2021/10/06 09:32:28;;;;;;;1999.90;999.90;;;;;;;15.52;64.85;96420.78;5070015;28;20262;-71
2021/10/06 09:35:10;;;;;;;1999.90;999.90;;;;;;;15.52;64.45;96432.03;5069973;28;20200;-71
2021/10/06 09:37:40;;;;;;;1999.90;999.90;;;;;;;15.34;65.37;96423.28;5049726;28;20185;-71
2021/10/06 09:40:10;;;;;;;1999.90;999.90;;;;;;;15.47;65.77;96430.31;5050036;28;20256;-70
2021/10/06 09:42:45;;;;;;;1999.90;999.90;;;;;;;15.50;64.89;96432.31;5049962;28;20357;-71
2021/10/06 09:45:21;;;;;;;1999.90;999.90;;;;;;;15.36;66.44;96433.47;5049664;28;20260;-70
2021/10/06 09:48:00;;;;;;;1999.90;999.90;;;;;;;15.15;65.46;96422.72;5049560;28;20189;-71
2021/10/06 09:50:28;;;;;;;1999.90;999.90;;;;;;;15.31;66.17;96421.28;5050307;28;20193;-71
2021/10/06 09:52:56;;;;;;;1999.90;999.90;;;;;;;15.23;64.19;96416.00;5049672;28;20225;-71
2021/10/06 09:55:23;;;;;;;1999.90;999.90;;;;;;;15.20;65.31;96409.50;5049332;28;20229;-71
2021/10/06 09:57:55;;;;;;;1999.90;999.90;;;;;;;15.25;65.07;96411.97;5049642;28;20201;-71
2021/10/06 10:00:23;;;;;;;1999.90;999.90;;;;;;;15.49;65.79;96388.84;5054793;28;20283;-71
2021/10/06 10:02:50;;;;;;;1999.90;999.90;;;;;;;15.46;64.10;96394.69;5064714;28;20243;-72
2021/10/06 10:05:17;;;;;;;1999.90;999.90;;;;;;;15.40;64.93;96387.25;5049387;28;20220;-71
2021/10/06 10:07:44;;;;;;;1999.90;999.90;;;;;;;15.63;64.61;96380.16;5049352;28;20209;-71
2021/10/06 10:10:14;;;;;;;1999.90;999.90;;;;;;;15.77;64.01;96370.31;5049257;28;20197;-71
2021/10/06 10:12:42;;;;;;;1999.90;999.90;;;;;;;15.62;64.72;96376.75;5049493;28;20197;-71
2021/10/06 10:15:12;;;;;;;1999.90;999.90;;;;;;;15.36;64.91;96368.75;5058063;28;20199;-71
2021/10/06 10:17:39;;;;;;;1999.90;999.90;;;;;;;15.46;65.02;96368.50;5069020;28;20192;-70
2021/10/06 10:20:11;;;;;;;1999.90;999.90;;;;;;;15.48;64.96;96363.72;5069350;28;20201;-70
2021/10/06 10:22:42;;;;;;;1999.90;999.90;;;;;;;15.52;63.64;96363.16;5068986;28;20184;-71
2021/10/06 10:25:19;;;;;;;1999.90;999.90;;;;;;;15.48;64.42;96379.47;5069011;28;20638;-71
2021/10/06 10:28:08;;;;;;;1999.90;999.90;;;;;;;15.60;63.86;96365.03;5068713;28;20196;-70
2021/10/06 10:30:38;;;;;;;1999.90;999.90;;;;;;;15.59;64.00;96376.59;5065822;28;20230;-70
2021/10/06 10:33:06;;;;;;;1999.90;999.90;;;;;;;15.83;63.53;96379.59;5067812;28;20223;-71
2021/10/06 10:35:35;;;;;;;1999.90;999.90;;;;;;;15.82;63.34;96380.66;5068702;28;20200;-71
2021/10/06 10:38:18;;;;;;;1999.90;999.90;;;;;;;15.69;63.11;96377.06;5068780;28;20200;-71
2021/10/06 10:40:54;;;;;;;1999.90;999.90;;;;;;;15.56;63.13;96375.34;5068912;28;20191;-71
2021/10/06 10:43:23;;;;;;;1999.90;999.90;;;;;;;15.86;63.53;96363.25;5068818;28;20567;-71
2021/10/06 10:45:53;;;;;;;1999.90;999.90;;;;;;;16.06;62.86;96378.41;5068583;28;20687;-70
2021/10/06 10:48:22;;;;;;;1999.90;999.90;;;;;;;16.04;61.37;96372.69;5068884;28;20193;-70
2021/10/06 10:51:13;;;;;;;1999.90;999.90;;;;;;;16.11;61.56;96374.88;5068700;28;20239;-71
2021/10/06 10:53:59;;;;;;;1999.90;999.90;;;;;;;16.05;61.57;96371.63;5068526;28;20263;-70
2021/10/06 10:56:45;;;;;;;1999.90;999.90;;;;;;;16.00;62.12;96370.97;5069160;28;20210;-71
2021/10/06 10:59:13;;;;;;;1999.90;999.90;;;;;;;16.12;61.13;96368.56;5068613;28;20678;-71